createdAt,value
2023-04-15T00:00:08.473Z,501.75
2023-04-15T00:01:08.371Z,581.03
2023-04-15T00:02:08.448Z,453.54
2023-04-15T00:03:08.545Z,304.24
2023-04-15T00:04:08.529Z,203.84
2023-04-15T00:05:08.385Z,218.71
2023-04-15T00:06:08.464Z,267.27
2023-04-15T00:07:08.526Z,289.13
2023-04-15T00:08:08.499Z,293.43
2023-04-15T00:09:08.521Z,304.90
2023-04-15T00:10:08.541Z,308.04
2023-04-15T00:11:08.570Z,292.23
2023-04-15T00:12:08.553Z,339.15
2023-04-15T00:13:08.592Z,510.34
2023-04-15T00:14:08.662Z,498.60
2023-04-15T00:15:08.734Z,491.06
2023-04-15T00:16:08.851Z,536.19
2023-04-15T00:17:08.855Z,525.42
2023-04-15T00:18:08.945Z,579.83
2023-04-15T00:19:08.901Z,837.53
2023-04-15T00:20:09.682Z,820.06
2023-04-15T00:21:09.066Z,446.92
2023-04-15T00:22:08.941Z,322.55
2023-04-15T00:23:08.976Z,303.69
2023-04-15T00:24:09.046Z,273.05
2023-04-15T00:25:09.076Z,188.93
2023-04-15T00:26:09.189Z,170.51
2023-04-15T00:27:09.207Z,160.44
2023-04-15T00:28:09.283Z,140.35
2023-04-15T00:29:09.561Z,121.97
2023-04-15T00:30:09.317Z,130.64
2023-04-15T00:31:09.370Z,132.73
2023-04-15T00:32:09.401Z,157.31
2023-04-15T00:33:09.432Z,194.92
2023-04-15T00:34:09.533Z,146.77
2023-04-15T00:35:09.577Z,138.12
2023-04-15T00:36:09.580Z,178.35
2023-04-15T00:37:09.651Z,152.94
2023-04-15T00:38:09.710Z,158.18
2023-04-15T00:39:09.746Z,151.23
2023-04-15T00:40:09.808Z,143.17
2023-04-15T00:41:09.854Z,140.68
2023-04-15T00:42:09.845Z,149.84
2023-04-15T00:43:09.911Z,149.01
2023-04-15T00:44:09.886Z,143.51
2023-04-15T00:45:10.092Z,165.65
2023-04-15T00:46:09.958Z,200.75
2023-04-15T00:47:09.995Z,183.98
2023-04-15T00:48:10.005Z,191.92
2023-04-15T00:49:10.082Z,227.94
2023-04-15T00:50:10.561Z,253.19
2023-04-15T00:51:10.113Z,263.09
2023-04-15T00:52:10.134Z,209.73
2023-04-15T00:53:10.151Z,228.57
2023-04-15T00:54:10.172Z,228.47
2023-04-15T00:55:11.060Z,219.48
2023-04-15T00:56:10.260Z,248.02
2023-04-15T00:57:10.275Z,251.46
2023-04-15T00:58:10.326Z,193.95
2023-04-15T00:59:10.389Z,159.78
2023-04-15T01:00:10.399Z,163.19
2023-04-15T01:01:10.408Z,176.93
2023-04-15T01:02:10.572Z,138.40
2023-04-15T01:03:10.573Z,95.23
2023-04-15T01:04:10.585Z,103.27
2023-04-15T01:05:10.571Z,89.87
2023-04-15T01:06:10.594Z,100.10
2023-04-15T01:07:10.604Z,88.58
2023-04-15T01:08:10.656Z,89.40
2023-04-15T01:09:11.072Z,94.68
2023-04-15T01:10:10.724Z,99.53
2023-04-15T01:11:10.748Z,90.39
2023-04-15T01:12:10.784Z,101.94
2023-04-15T01:13:10.821Z,84.02
2023-04-15T01:14:10.897Z,83.93
2023-04-15T01:15:10.916Z,84.14
2023-04-15T01:16:10.998Z,86.29
2023-04-15T01:17:11.000Z,105.15
2023-04-15T01:18:11.072Z,105.72
2023-04-15T01:19:11.096Z,88.09
2023-04-15T01:20:11.110Z,108.61
2023-04-15T01:21:11.141Z,111.75
2023-04-15T01:22:11.209Z,87.25
2023-04-15T01:23:11.230Z,50.40
2023-04-15T01:24:11.240Z,45.45
2023-04-15T01:25:11.251Z,57.46
2023-04-15T01:26:11.323Z,79.92
2023-04-15T01:27:11.352Z,73.44
2023-04-15T01:28:11.369Z,95.89
2023-04-15T01:29:12.041Z,101.75
2023-04-15T01:30:11.507Z,75.98
2023-04-15T01:31:11.662Z,74.15
2023-04-15T01:32:11.591Z,52.80
2023-04-15T01:33:11.600Z,75.25
2023-04-15T01:34:12.081Z,93.45
2023-04-15T01:35:11.638Z,114.14
2023-04-15T01:36:11.668Z,131.60
2023-04-15T01:37:11.737Z,130.47
2023-04-15T01:38:11.763Z,70.24
2023-04-15T01:39:12.550Z,23.09
2023-04-15T01:40:11.898Z,13.47
2023-04-15T01:41:11.858Z,9.06
2023-04-15T01:42:11.891Z,5.07
2023-04-15T01:43:11.896Z,4.55
2023-04-15T01:44:11.925Z,10.86
2023-04-15T01:45:11.926Z,24.70
2023-04-15T01:46:11.976Z,32.39
2023-04-15T01:47:11.971Z,44.40
2023-04-15T01:48:11.996Z,42.76
2023-04-15T01:49:12.063Z,16.49
2023-04-15T01:50:12.098Z,3.88
2023-04-15T01:51:12.171Z,2.27
2023-04-15T01:52:12.188Z,0.83
2023-04-15T01:53:12.139Z,2.52
2023-04-15T01:54:12.165Z,13.50
2023-04-15T01:55:12.187Z,43.87
2023-04-15T01:56:12.196Z,106.93
2023-04-15T01:57:12.231Z,191.25
2023-04-15T01:58:12.333Z,159.19
2023-04-15T01:59:12.357Z,169.81
2023-04-15T02:00:14.127Z,177.33
2023-04-15T02:01:12.483Z,138.45
2023-04-15T02:02:12.492Z,51.05
2023-04-15T02:03:12.579Z,17.92
2023-04-15T02:04:12.565Z,28.76
2023-04-15T02:05:12.618Z,45.13
2023-04-15T02:06:12.643Z,39.67
2023-04-15T02:07:12.665Z,31.85
2023-04-15T02:08:12.678Z,15.04
2023-04-15T02:09:12.784Z,4.12
2023-04-15T02:10:12.762Z,2.42
2023-04-15T02:11:12.780Z,4.44
2023-04-15T02:12:12.863Z,3.86
2023-04-15T02:13:12.929Z,1.83
2023-04-15T02:14:12.888Z,2.50
2023-04-15T02:15:12.925Z,4.90
2023-04-15T02:16:12.980Z,2.38
2023-04-15T02:17:12.959Z,1.04
2023-04-15T02:18:13.010Z,0.63
2023-04-15T02:19:12.980Z,0.35
2023-04-15T02:20:13.105Z,0.34
2023-04-15T02:21:13.036Z,0.42
2023-04-15T02:22:13.148Z,0.34
2023-04-15T02:23:13.115Z,0.34
2023-04-15T02:24:13.141Z,0.34
2023-04-15T02:25:13.149Z,0.34
2023-04-15T02:26:13.216Z,0.34
2023-04-15T02:27:13.235Z,0.34
2023-04-15T02:28:13.252Z,0.34
2023-04-15T02:29:13.300Z,0.34
2023-04-15T02:30:13.294Z,0.34
2023-04-15T02:31:13.309Z,0.34
2023-04-15T02:32:13.454Z,0.45
2023-04-15T02:33:13.436Z,0.50
2023-04-15T02:34:13.428Z,0.39
2023-04-15T02:35:13.501Z,0.34
2023-04-15T02:36:13.463Z,0.34
2023-04-15T02:37:13.487Z,0.34
2023-04-15T02:38:13.449Z,0.34
2023-04-15T02:39:13.460Z,0.34
2023-04-15T02:40:13.551Z,0.34
2023-04-15T02:41:13.554Z,0.34
2023-04-15T02:42:13.554Z,0.34
2023-04-15T02:43:13.587Z,0.34
2023-04-15T02:44:13.663Z,0.34
2023-04-15T02:45:13.768Z,0.49
2023-04-15T02:46:13.773Z,0.92
2023-04-15T02:47:13.824Z,1.44
2023-04-15T02:48:13.870Z,0.90
2023-04-15T02:49:13.837Z,0.59
2023-04-15T02:50:13.932Z,0.34
2023-04-15T02:51:13.982Z,0.34
2023-04-15T02:52:13.976Z,0.34
2023-04-15T02:53:14.006Z,0.37
2023-04-15T02:54:14.106Z,0.38
2023-04-15T02:55:14.134Z,0.38
2023-04-15T02:56:14.175Z,0.34
2023-04-15T02:57:14.218Z,0.34
2023-04-15T02:58:14.272Z,0.40
2023-04-15T02:59:14.386Z,0.46
2023-04-15T03:00:14.421Z,0.57
2023-04-15T03:01:14.430Z,0.71
2023-04-15T03:02:14.509Z,1.12
2023-04-15T03:03:14.704Z,0.87
2023-04-15T03:04:14.701Z,0.91
2023-04-15T03:05:14.434Z,1.01
2023-04-15T03:06:14.474Z,0.89
2023-04-15T03:07:14.467Z,0.51
2023-04-15T03:08:14.470Z,0.42
2023-04-15T03:09:14.525Z,0.45
2023-04-15T03:10:14.585Z,0.51
2023-04-15T03:11:14.499Z,0.51
2023-04-15T03:12:14.513Z,0.53
2023-04-15T03:13:14.538Z,0.59
2023-04-15T03:14:14.559Z,0.60
2023-04-15T03:15:14.562Z,0.71
2023-04-15T03:16:14.678Z,0.68
2023-04-15T03:17:14.545Z,0.58
2023-04-15T03:18:14.587Z,0.66
2023-04-15T03:19:14.610Z,0.84
2023-04-15T03:20:14.683Z,0.95
2023-04-15T03:21:14.663Z,0.92
2023-04-15T03:22:14.716Z,1.10
2023-04-15T03:23:14.810Z,0.95
2023-04-15T03:24:14.822Z,1.40
2023-04-15T03:25:14.887Z,2.06
2023-04-15T03:26:14.906Z,3.04
2023-04-15T03:27:14.939Z,3.31
2023-04-15T03:28:14.964Z,3.75
2023-04-15T03:29:15.034Z,3.19
2023-04-15T03:30:15.082Z,3.07
2023-04-15T03:31:15.086Z,3.42
2023-04-15T03:32:15.173Z,2.51
2023-04-15T03:33:15.088Z,1.19
2023-04-15T03:34:15.109Z,0.84
2023-04-15T03:35:15.156Z,1.08
2023-04-15T03:36:15.206Z,1.13
2023-04-15T03:37:15.283Z,1.10
2023-04-15T03:38:15.311Z,0.70
2023-04-15T03:39:15.359Z,0.55
2023-04-15T03:40:15.385Z,0.45
2023-04-15T03:41:15.457Z,0.40
2023-04-15T03:42:15.460Z,0.42
2023-04-15T03:43:15.515Z,0.44
2023-04-15T03:44:15.564Z,0.49
2023-04-15T03:45:15.680Z,0.56
2023-04-15T03:46:15.682Z,0.53
2023-04-15T03:47:15.692Z,0.55
2023-04-15T03:48:17.876Z,0.56
2023-04-15T03:49:15.967Z,1.02
2023-04-15T03:50:16.004Z,0.87
2023-04-15T03:51:16.052Z,0.46
2023-04-15T03:52:16.073Z,0.52
2023-04-15T03:53:16.093Z,0.46
2023-04-15T03:54:16.133Z,0.56
2023-04-15T03:55:16.273Z,0.81
2023-04-15T03:56:16.220Z,0.77
2023-04-15T03:57:16.266Z,0.64
2023-04-15T03:58:16.311Z,0.51
2023-04-15T03:59:16.338Z,0.50
2023-04-15T04:00:16.414Z,0.83
2023-04-15T04:01:16.447Z,0.84
2023-04-15T04:02:16.573Z,1.38
2023-04-15T04:03:16.646Z,2.51
2023-04-15T04:04:16.577Z,3.01
2023-04-15T04:05:16.543Z,1.14
2023-04-15T04:06:16.578Z,1.10
2023-04-15T04:07:16.559Z,1.60
2023-04-15T04:08:16.576Z,1.68
2023-04-15T04:09:16.590Z,1.45
2023-04-15T04:10:16.608Z,2.13
2023-04-15T04:11:16.667Z,1.67
2023-04-15T04:12:16.822Z,7.93
2023-04-15T04:13:16.769Z,3.67
2023-04-15T04:14:16.874Z,3.09
2023-04-15T04:15:16.853Z,6.13
2023-04-15T04:16:16.934Z,4.73
2023-04-15T04:17:16.870Z,3.65
2023-04-15T04:18:16.938Z,2.53
2023-04-15T04:19:16.940Z,2.13
2023-04-15T04:20:16.989Z,2.36
2023-04-15T04:21:17.032Z,6.00
2023-04-15T04:22:17.133Z,7.34
2023-04-15T04:23:17.057Z,7.84
2023-04-15T04:24:17.089Z,5.81
2023-04-15T04:25:17.236Z,5.24
2023-04-15T04:26:17.626Z,4.92
2023-04-15T04:27:17.329Z,3.01
2023-04-15T04:28:17.443Z,2.54
2023-04-15T04:29:17.528Z,2.80
2023-04-15T04:30:17.671Z,4.66
2023-04-15T04:31:17.657Z,5.67
2023-04-15T04:32:17.678Z,2.09
2023-04-15T04:33:17.771Z,1.23
2023-04-15T04:34:17.760Z,0.92
2023-04-15T04:35:17.831Z,1.56
2023-04-15T04:36:17.905Z,3.80
2023-04-15T04:37:17.942Z,6.48
2023-04-15T04:38:17.955Z,5.83
2023-04-15T04:39:18.031Z,2.53
2023-04-15T04:40:18.101Z,1.06
2023-04-15T04:41:18.134Z,0.47
2023-04-15T04:42:18.074Z,0.38
2023-04-15T04:43:18.140Z,0.34
2023-04-15T04:44:18.150Z,0.34
2023-04-15T04:45:19.164Z,0.34
2023-04-15T04:46:18.228Z,0.48
2023-04-15T04:47:18.221Z,0.91
2023-04-15T04:48:18.318Z,1.78
2023-04-15T04:49:18.332Z,3.67
2023-04-15T04:50:18.378Z,3.57
2023-04-15T04:51:18.423Z,2.41
2023-04-15T04:52:18.401Z,2.81
2023-04-15T04:53:19.092Z,2.45
2023-04-15T04:54:18.454Z,2.39
2023-04-15T04:55:18.478Z,2.59
2023-04-15T04:56:18.498Z,2.61
2023-04-15T04:57:18.556Z,2.86
2023-04-15T04:58:18.614Z,2.79
2023-04-15T04:59:19.498Z,3.15
2023-04-15T05:00:18.668Z,4.05
2023-04-15T05:01:18.700Z,3.12
2023-04-15T05:02:18.798Z,13.51
2023-04-15T05:03:18.987Z,17.16
2023-04-15T05:04:18.771Z,4.80
2023-04-15T05:05:18.810Z,2.11
2023-04-15T05:06:19.744Z,1.74
2023-04-15T05:07:18.928Z,1.65
2023-04-15T05:08:18.922Z,1.70
2023-04-15T05:09:18.975Z,1.03
2023-04-15T05:10:19.008Z,2.77
2023-04-15T05:11:19.044Z,3.02
2023-04-15T05:12:19.058Z,1.82
2023-04-15T05:13:19.069Z,1.10
2023-04-15T05:14:19.220Z,0.97
2023-04-15T05:15:19.273Z,1.06
2023-04-15T05:16:19.387Z,1.43
2023-04-15T05:17:19.477Z,0.94
2023-04-15T05:18:19.429Z,0.63
2023-04-15T05:19:19.438Z,0.80
2023-04-15T05:20:19.450Z,0.55
2023-04-15T05:21:19.482Z,0.50
2023-04-15T05:22:19.547Z,0.48
2023-04-15T05:23:19.565Z,0.46
2023-04-15T05:24:19.641Z,0.46
2023-04-15T05:25:19.650Z,0.50
2023-04-15T05:26:19.717Z,0.41
2023-04-15T05:27:19.814Z,0.55
2023-04-15T05:28:19.808Z,0.64
2023-04-15T05:29:19.875Z,0.71
2023-04-15T05:30:19.898Z,0.75
2023-04-15T05:31:19.992Z,0.94
2023-04-15T05:32:20.128Z,1.55
2023-04-15T05:33:20.076Z,3.02
2023-04-15T05:34:20.122Z,3.94
2023-04-15T05:35:20.173Z,3.48
2023-04-15T05:36:20.106Z,3.05
2023-04-15T05:37:20.133Z,2.71
2023-04-15T05:38:20.157Z,2.02
2023-04-15T05:39:20.172Z,2.09
2023-04-15T05:40:20.233Z,3.13
2023-04-15T05:41:20.195Z,3.13
2023-04-15T05:42:21.180Z,3.60
2023-04-15T05:43:20.187Z,4.07
2023-04-15T05:44:20.210Z,10.06
2023-04-15T05:45:20.233Z,17.68
2023-04-15T05:46:20.226Z,25.58
2023-04-15T05:47:20.283Z,25.93
2023-04-15T05:48:20.253Z,21.62
2023-04-15T05:49:20.306Z,57.12
2023-04-15T05:50:20.321Z,81.21
2023-04-15T05:51:20.292Z,90.50
2023-04-15T05:52:20.338Z,30.72
2023-04-15T05:53:20.330Z,15.12
2023-04-15T05:54:20.475Z,4.05
2023-04-15T05:55:20.326Z,3.17
2023-04-15T05:56:20.640Z,2.38
2023-04-15T05:57:20.396Z,1.08
2023-04-15T05:58:20.442Z,1.22
2023-04-15T05:59:20.485Z,2.67
2023-04-15T06:00:20.520Z,2.61
2023-04-15T06:01:20.529Z,0.67
2023-04-15T06:02:21.177Z,0.47
2023-04-15T06:03:20.675Z,0.46
2023-04-15T06:04:20.785Z,0.83
2023-04-15T06:05:20.711Z,0.55
2023-04-15T06:06:21.140Z,0.44
2023-04-15T06:07:20.793Z,0.65
2023-04-15T06:08:20.900Z,0.38
2023-04-15T06:09:20.911Z,0.34
2023-04-15T06:10:20.992Z,0.34
2023-04-15T06:11:21.126Z,0.34
2023-04-15T06:12:21.038Z,0.34
2023-04-15T06:13:21.063Z,0.34
2023-04-15T06:14:21.083Z,0.34
2023-04-15T06:15:21.096Z,0.34
2023-04-15T06:16:21.160Z,0.56
2023-04-15T06:17:21.215Z,0.80
2023-04-15T06:18:21.204Z,0.93
2023-04-15T06:19:21.213Z,0.53
2023-04-15T06:20:21.701Z,0.55
2023-04-15T06:21:21.350Z,0.79
2023-04-15T06:22:21.293Z,0.78
2023-04-15T06:23:21.297Z,0.67
2023-04-15T06:24:21.429Z,1.10
2023-04-15T06:25:21.390Z,1.46
2023-04-15T06:26:21.393Z,1.59
2023-04-15T06:27:21.430Z,1.85
2023-04-15T06:28:21.443Z,1.12
2023-04-15T06:29:21.463Z,0.96
2023-04-15T06:30:22.931Z,0.96
2023-04-15T06:31:21.523Z,0.77
2023-04-15T06:32:21.569Z,0.79
2023-04-15T06:33:21.515Z,1.62
2023-04-15T06:34:21.502Z,3.88
2023-04-15T06:35:21.516Z,7.14
2023-04-15T06:36:21.486Z,40.43
2023-04-15T06:37:21.502Z,207.79
2023-04-15T06:38:21.476Z,522.39
2023-04-15T06:39:21.431Z,613.33
2023-04-15T06:40:21.519Z,1000.00
2023-04-15T06:41:21.505Z,1000.00
2023-04-15T06:42:21.460Z,1000.00
2023-04-15T06:43:21.424Z,1000.00
2023-04-15T06:44:21.434Z,1000.00
2023-04-15T06:45:22.137Z,1000.00
2023-04-15T06:46:21.481Z,1000.00
2023-04-15T06:47:21.483Z,1000.00
2023-04-15T06:48:21.420Z,1000.00
2023-04-15T06:49:21.413Z,1000.00
2023-04-15T06:50:21.406Z,1000.00
2023-04-15T06:51:21.374Z,1000.00
2023-04-15T06:52:21.390Z,1000.00
2023-04-15T06:53:21.372Z,1000.00
2023-04-15T06:54:21.369Z,1000.00
2023-04-15T06:55:21.388Z,1000.00
2023-04-15T06:56:21.351Z,1000.00
2023-04-15T06:57:21.385Z,1000.00
2023-04-15T06:58:21.342Z,1000.00
2023-04-15T06:59:21.316Z,1000.00
2023-04-15T07:00:21.323Z,1000.00
2023-04-15T07:01:21.363Z,1000.00
2023-04-15T07:02:21.405Z,1000.00
2023-04-15T07:03:21.313Z,1000.00
2023-04-15T07:04:21.330Z,1000.00
2023-04-15T07:05:21.282Z,1000.00
2023-04-15T07:06:21.298Z,1000.00
2023-04-15T07:07:21.272Z,1000.00
2023-04-15T07:08:21.263Z,1000.00
2023-04-15T07:09:21.272Z,947.77
2023-04-15T07:10:21.266Z,607.39
2023-04-15T07:11:21.229Z,283.09
2023-04-15T07:12:21.241Z,810.61
2023-04-15T07:13:21.265Z,1000.00
2023-04-15T07:14:21.226Z,793.87
2023-04-15T07:15:21.220Z,259.75
2023-04-15T07:16:21.268Z,613.05
2023-04-15T07:17:21.228Z,1000.00
2023-04-15T07:18:21.214Z,1000.00
2023-04-15T07:19:21.225Z,1000.00
2023-04-15T07:20:21.188Z,1000.00
2023-04-15T07:21:21.166Z,1000.00
2023-04-15T07:22:21.672Z,161.25
2023-04-15T07:23:21.154Z,74.09
2023-04-15T07:24:21.156Z,94.02
2023-04-15T07:25:21.171Z,28.50
2023-04-15T07:26:21.143Z,405.87
2023-04-15T07:27:21.117Z,213.97
2023-04-15T07:28:21.134Z,32.51
2023-04-15T07:29:21.155Z,25.35
2023-04-15T07:30:21.118Z,104.07
2023-04-15T07:31:21.173Z,12.80
2023-04-15T07:32:21.117Z,1000.00
2023-04-15T07:33:21.138Z,1000.00
2023-04-15T07:34:21.206Z,455.47
2023-04-15T07:35:21.267Z,49.46
2023-04-15T07:36:21.185Z,14.79
2023-04-15T07:37:21.184Z,38.37
2023-04-15T07:38:21.178Z,74.19
2023-04-15T07:39:21.312Z,54.27
2023-04-15T07:40:21.267Z,7.36
2023-04-15T07:41:21.257Z,909.97
2023-04-15T07:42:21.299Z,1000.00
2023-04-15T07:43:21.369Z,950.47
2023-04-15T07:44:21.329Z,743.73
2023-04-15T07:45:21.357Z,1000.00
2023-04-15T07:46:21.455Z,1000.00
2023-04-15T07:47:21.535Z,451.80
2023-04-15T07:48:21.466Z,1000.00
2023-04-15T07:49:21.553Z,812.23
2023-04-15T07:50:21.527Z,111.29
2023-04-15T07:51:21.577Z,248.81
2023-04-15T07:52:21.594Z,61.18
2023-04-15T07:53:21.604Z,9.00
2023-04-15T07:54:21.684Z,6.14
2023-04-15T07:55:21.694Z,7.86
2023-04-15T07:56:21.791Z,4.36
2023-04-15T07:57:21.795Z,2.63
2023-04-15T07:58:21.859Z,1.67
2023-04-15T07:59:21.888Z,1.39
2023-04-15T08:00:21.897Z,8.03
2023-04-15T08:01:21.961Z,229.96
2023-04-15T08:02:22.062Z,165.73
2023-04-15T08:03:22.092Z,98.50
2023-04-15T08:04:22.111Z,108.61
2023-04-15T08:05:22.133Z,50.00
2023-04-15T08:06:22.109Z,5.64
2023-04-15T08:07:22.181Z,36.99
2023-04-15T08:08:22.262Z,26.23
2023-04-15T08:09:22.327Z,21.73
2023-04-15T08:10:22.392Z,608.76
2023-04-15T08:11:22.348Z,38.14
2023-04-15T08:12:22.398Z,162.98
2023-04-15T08:13:22.400Z,77.20
2023-04-15T08:14:22.395Z,20.79
2023-04-15T08:15:22.438Z,25.79
2023-04-15T08:16:22.678Z,17.51
2023-04-15T08:17:22.537Z,21.10
2023-04-15T08:18:22.538Z,53.71
2023-04-15T08:19:22.596Z,91.62
2023-04-15T08:20:22.686Z,51.61
2023-04-15T08:21:22.668Z,17.57
2023-04-15T08:22:22.749Z,92.40
2023-04-15T08:23:22.762Z,21.90
2023-04-15T08:24:22.835Z,9.30
2023-04-15T08:25:23.163Z,2.25
2023-04-15T08:26:22.893Z,1.03
2023-04-15T08:27:22.942Z,0.48
2023-04-15T08:28:22.974Z,0.34
2023-04-15T08:29:23.121Z,0.44
2023-04-15T08:30:23.063Z,0.64
2023-04-15T08:31:23.137Z,0.79
2023-04-15T08:32:23.138Z,0.36
2023-04-15T08:33:23.180Z,0.34
2023-04-15T08:34:23.228Z,0.34
2023-04-15T08:35:23.302Z,0.34
2023-04-15T08:36:23.410Z,0.34
2023-04-15T08:37:23.379Z,0.66
2023-04-15T08:38:23.372Z,0.42
2023-04-15T08:39:23.442Z,0.44
2023-04-15T08:40:23.498Z,0.60
2023-04-15T08:41:23.556Z,0.34
2023-04-15T08:42:23.556Z,0.34
2023-04-15T08:43:23.617Z,0.34
2023-04-15T08:44:23.608Z,0.34
2023-04-15T08:45:23.651Z,0.34
2023-04-15T08:46:23.684Z,0.34
2023-04-15T08:47:23.661Z,0.34
2023-04-15T08:48:23.650Z,0.34
2023-04-15T08:49:23.661Z,1.22
2023-04-15T08:50:23.728Z,0.60
2023-04-15T08:51:24.988Z,0.58
2023-04-15T08:52:23.817Z,0.40
2023-04-15T08:53:23.887Z,0.34
2023-04-15T08:54:23.899Z,0.34
2023-04-15T08:55:24.732Z,0.40
2023-04-15T08:56:23.997Z,2.87
2023-04-15T08:57:23.960Z,0.88
2023-04-15T08:58:23.974Z,0.58
2023-04-15T08:59:24.005Z,0.91
2023-04-15T09:00:24.073Z,2.33
2023-04-15T09:01:24.095Z,0.87
2023-04-15T09:02:24.187Z,0.38
2023-04-15T09:03:24.190Z,0.34
2023-04-15T09:04:24.165Z,0.34
2023-04-15T09:05:24.201Z,1.68
2023-04-15T09:06:24.236Z,1.35
2023-04-15T09:07:24.230Z,3.24
2023-04-15T09:08:24.315Z,10.98
2023-04-15T09:09:24.258Z,12.21
2023-04-15T09:10:24.331Z,15.34
2023-04-15T09:11:24.313Z,28.38
2023-04-15T09:12:24.293Z,87.73
2023-04-15T09:13:24.365Z,76.48
2023-04-15T09:14:24.429Z,14.24
2023-04-15T09:15:24.492Z,3.87
2023-04-15T09:16:24.597Z,1.65
2023-04-15T09:17:24.515Z,1.89
2023-04-15T09:18:24.511Z,1.18
2023-04-15T09:19:24.578Z,0.37
2023-04-15T09:20:24.720Z,0.39
2023-04-15T09:21:24.582Z,0.52
2023-04-15T09:22:24.587Z,0.39
2023-04-15T09:23:24.679Z,0.63
2023-04-15T09:24:24.717Z,0.49
2023-04-15T09:25:24.742Z,0.88
2023-04-15T09:26:24.804Z,1.25
2023-04-15T09:27:24.823Z,2.25
2023-04-15T09:28:24.868Z,11.40
2023-04-15T09:29:24.970Z,47.48
2023-04-15T09:30:24.953Z,10.84
2023-04-15T09:31:25.060Z,3.13
2023-04-15T09:32:25.054Z,3.29
2023-04-15T09:33:25.046Z,2.63
2023-04-15T09:34:25.112Z,1.77
2023-04-15T09:35:25.183Z,0.41
2023-04-15T09:36:25.231Z,0.34
2023-04-15T09:37:32.477Z,0.38
2023-04-15T09:38:26.672Z,0.38
2023-04-15T09:39:25.200Z,0.44
2023-04-15T09:40:25.692Z,0.56
2023-04-15T09:41:25.196Z,0.64
2023-04-15T09:42:25.166Z,0.94
2023-04-15T09:43:25.205Z,2.54
2023-04-15T09:44:25.131Z,10.04
2023-04-15T09:45:27.152Z,25.47
2023-04-15T09:46:25.136Z,25.54
2023-04-15T09:47:25.137Z,25.76
2023-04-15T09:48:25.360Z,25.98
2023-04-15T09:49:25.198Z,9.54
2023-04-15T09:50:25.114Z,6.16
2023-04-15T09:51:25.068Z,8.46
2023-04-15T09:52:25.075Z,135.99
2023-04-15T09:53:25.125Z,633.69
2023-04-15T09:54:25.074Z,166.39
2023-04-15T09:55:25.109Z,207.31
2023-04-15T09:56:25.056Z,192.32
2023-04-15T09:57:25.093Z,416.21
2023-04-15T09:58:25.090Z,1000.00
2023-04-15T09:59:25.055Z,1000.00
2023-04-15T10:00:25.031Z,1000.00
2023-04-15T10:01:25.126Z,1000.00
2023-04-15T10:02:25.142Z,1000.00
2023-04-15T10:03:25.123Z,1000.00
2023-04-15T10:04:25.148Z,1000.00
2023-04-15T10:05:25.026Z,1000.00
2023-04-15T10:06:25.031Z,1000.00
2023-04-15T10:07:25.053Z,1000.00
2023-04-15T10:08:24.976Z,1000.00
2023-04-15T10:09:24.989Z,1000.00
2023-04-15T10:10:25.055Z,1000.00
2023-04-15T10:11:24.974Z,1000.00
2023-04-15T10:12:24.942Z,1000.00
2023-04-15T10:13:24.961Z,1000.00
2023-04-15T10:14:25.034Z,1000.00
2023-04-15T10:15:25.049Z,1000.00
2023-04-15T10:16:25.051Z,1000.00
2023-04-15T10:17:25.125Z,1000.00
2023-04-15T10:18:25.109Z,1000.00
2023-04-15T10:19:25.125Z,1000.00
2023-04-15T10:20:25.752Z,1000.00
2023-04-15T10:21:25.118Z,1000.00
2023-04-15T10:22:25.132Z,1000.00
2023-04-15T10:23:25.151Z,1000.00
2023-04-15T10:24:25.226Z,1000.00
2023-04-15T10:25:25.178Z,1000.00
2023-04-15T10:26:25.150Z,1000.00
2023-04-15T10:27:25.178Z,1000.00
2023-04-15T10:28:25.206Z,1000.00
2023-04-15T10:29:25.164Z,1000.00
2023-04-15T10:30:25.688Z,1000.00
2023-04-15T10:31:25.303Z,1000.00
2023-04-15T10:32:25.305Z,1000.00
2023-04-15T10:33:25.286Z,1000.00
2023-04-15T10:34:25.348Z,1000.00
2023-04-15T10:35:25.370Z,1000.00
2023-04-15T10:36:25.386Z,1000.00
2023-04-15T10:37:25.417Z,1000.00
2023-04-15T10:38:25.434Z,1000.00
2023-04-15T10:39:25.494Z,1000.00
2023-04-15T10:40:25.681Z,1000.00
2023-04-15T10:41:25.544Z,1000.00
2023-04-15T10:42:25.553Z,1000.00
2023-04-15T10:43:25.622Z,1000.00
2023-04-15T10:44:25.644Z,1000.00
2023-04-15T10:45:25.660Z,1000.00
2023-04-15T10:46:25.881Z,1000.00
2023-04-15T10:47:25.719Z,1000.00
2023-04-15T10:48:25.713Z,1000.00
2023-04-15T10:49:25.734Z,1000.00
2023-04-15T10:50:25.753Z,1000.00
2023-04-15T10:51:25.769Z,1000.00
2023-04-15T10:52:25.759Z,1000.00
2023-04-15T10:53:25.767Z,1000.00
2023-04-15T10:54:25.782Z,1000.00
2023-04-15T10:55:25.764Z,1000.00
2023-04-15T10:56:25.764Z,1000.00
2023-04-15T10:57:25.790Z,1000.00
2023-04-15T10:58:25.803Z,1000.00
2023-04-15T10:59:25.817Z,1000.00
2023-04-15T11:00:25.923Z,1000.00
2023-04-15T11:01:25.980Z,1000.00
2023-04-15T11:02:26.252Z,1000.00
2023-04-15T11:03:26.013Z,1000.00
2023-04-15T11:04:26.043Z,1000.00
2023-04-15T11:05:26.046Z,1000.00
2023-04-15T11:06:26.065Z,1000.00
2023-04-15T11:07:26.070Z,1000.00
2023-04-15T11:08:26.696Z,1000.00
2023-04-15T11:09:26.209Z,1000.00
2023-04-15T11:10:26.251Z,1000.00
2023-04-15T11:11:26.204Z,1000.00
2023-04-15T11:12:26.222Z,1000.00
2023-04-15T11:13:26.248Z,1000.00
2023-04-15T11:14:26.295Z,1000.00
2023-04-15T11:15:26.829Z,1000.00
2023-04-15T11:16:26.374Z,1000.00
2023-04-15T11:17:26.466Z,1000.00
2023-04-15T11:18:26.446Z,1000.00
2023-04-15T11:19:26.510Z,1000.00
2023-04-15T11:20:26.564Z,1000.00
2023-04-15T11:21:26.641Z,1000.00
2023-04-15T11:22:26.651Z,1000.00
2023-04-15T11:23:26.670Z,1000.00
2023-04-15T11:24:26.790Z,1000.00
2023-04-15T11:25:26.812Z,1000.00
2023-04-15T11:26:26.798Z,1000.00
2023-04-15T11:27:26.917Z,1000.00
2023-04-15T11:28:26.861Z,1000.00
2023-04-15T11:29:26.996Z,1000.00
2023-04-15T11:30:26.965Z,1000.00
2023-04-15T11:31:26.984Z,1000.00
2023-04-15T11:32:27.053Z,1000.00
2023-04-15T11:33:27.037Z,1000.00
2023-04-15T11:34:27.048Z,1000.00
2023-04-15T11:35:27.115Z,1000.00
2023-04-15T11:36:27.138Z,1000.00
2023-04-15T11:37:27.081Z,1000.00
2023-04-15T11:38:27.161Z,1000.00
2023-04-15T11:39:27.179Z,1000.00
2023-04-15T11:40:27.250Z,1000.00
2023-04-15T11:41:27.329Z,1000.00
2023-04-15T11:42:36.203Z,1000.00
2023-04-15T11:43:28.306Z,1000.00
2023-04-15T11:44:27.353Z,1000.00
2023-04-15T11:45:27.428Z,1000.00
2023-04-15T11:46:27.357Z,1000.00
2023-04-15T11:47:27.378Z,1000.00
2023-04-15T11:48:27.294Z,1000.00
2023-04-15T11:49:27.271Z,1000.00
2023-04-15T11:50:27.329Z,1000.00
2023-04-15T11:51:27.260Z,1000.00
2023-04-15T11:52:27.268Z,1000.00
2023-04-15T11:53:27.264Z,1000.00
2023-04-15T11:54:27.306Z,1000.00
2023-04-15T11:55:27.286Z,1000.00
2023-04-15T11:56:27.239Z,1000.00
2023-04-15T11:57:27.266Z,1000.00
2023-04-15T11:58:27.231Z,1000.00
2023-04-15T11:59:38.922Z,1000.00
2023-04-15T12:00:28.290Z,1000.00
2023-04-15T12:01:27.205Z,1000.00
2023-04-15T12:02:27.348Z,1000.00
2023-04-15T12:03:27.608Z,1000.00
2023-04-15T12:04:27.299Z,1000.00
2023-04-15T12:05:27.199Z,1000.00
2023-04-15T12:06:27.169Z,1000.00
2023-04-15T12:07:27.236Z,1000.00
2023-04-15T12:08:27.162Z,1000.00
2023-04-15T12:09:27.258Z,1000.00
2023-04-15T12:10:27.152Z,1000.00
2023-04-15T12:11:27.133Z,1000.00
2023-04-15T12:12:27.192Z,1000.00
2023-04-15T12:13:27.217Z,1000.00
2023-04-15T12:14:27.203Z,1000.00
2023-04-15T12:15:27.256Z,1000.00
2023-04-15T12:16:27.306Z,1000.00
2023-04-15T12:17:27.383Z,1000.00
2023-04-15T12:18:27.396Z,1000.00
2023-04-15T12:19:27.373Z,1000.00
2023-04-15T12:20:27.389Z,1000.00
2023-04-15T12:21:27.377Z,1000.00
2023-04-15T12:22:27.425Z,1000.00
2023-04-15T12:23:27.469Z,1000.00
2023-04-15T12:24:27.467Z,1000.00
2023-04-15T12:25:27.757Z,1000.00
2023-04-15T12:26:27.546Z,1000.00
2023-04-15T12:27:29.643Z,1000.00
2023-04-15T12:28:27.568Z,1000.00
2023-04-15T12:29:27.641Z,1000.00
2023-04-15T12:30:27.716Z,1000.00
2023-04-15T12:31:27.672Z,1000.00
2023-04-15T12:32:27.790Z,1000.00
2023-04-15T12:33:27.794Z,1000.00
2023-04-15T12:34:27.788Z,1000.00
2023-04-15T12:35:27.847Z,1000.00
2023-04-15T12:36:27.907Z,1000.00
2023-04-15T12:37:27.946Z,1000.00
2023-04-15T12:38:28.017Z,1000.00
2023-04-15T12:39:29.973Z,1000.00
2023-04-15T12:40:27.983Z,1000.00
2023-04-15T12:41:27.956Z,1000.00
2023-04-15T12:42:28.020Z,1000.00
2023-04-15T12:43:27.957Z,1000.00
2023-04-15T12:44:28.057Z,1000.00
2023-04-15T12:45:29.891Z,1000.00
2023-04-15T12:46:27.979Z,1000.00